createdAt,value
2023-11-13T00:02:26.930Z,100297.00
2023-11-13T00:04:57.028Z,100289.00
2023-11-13T00:07:24.960Z,100288.00
2023-11-13T00:10:16.596Z,100283.00
2023-11-13T00:12:43.475Z,100290.00
2023-11-13T00:15:14.364Z,100296.00
2023-11-13T00:17:59.725Z,100295.00
2023-11-13T00:20:26.586Z,100297.00
2023-11-13T00:22:59.501Z,100296.00
2023-11-13T00:25:35.335Z,100290.00
2023-11-13T00:28:08.312Z,100292.00
2023-11-13T00:31:02.379Z,100287.00
2023-11-13T00:33:51.232Z,100295.00
2023-11-13T00:36:33.334Z,100296.00
2023-11-13T00:39:40.904Z,100304.00
2023-11-13T00:42:41.605Z,100288.00
2023-11-13T00:45:45.725Z,100296.00
2023-11-13T00:51:30.701Z,100303.00
2023-11-13T00:54:03.915Z,100304.00
2023-11-13T00:57:10.749Z,100303.00
2023-11-13T00:59:46.828Z,100304.00
2023-11-13T01:02:16.818Z,100291.00
2023-11-13T01:04:55.550Z,100292.00
2023-11-13T01:07:34.307Z,100301.00
2023-11-13T01:10:01.301Z,100308.00
2023-11-13T01:12:38.019Z,100290.00
2023-11-13T01:15:14.618Z,100288.00
2023-11-13T01:18:25.020Z,100288.00
2023-11-13T01:21:14.440Z,100288.00
2023-11-13T01:24:24.750Z,100285.00
2023-11-13T01:27:19.636Z,100281.00
2023-11-13T01:33:38.937Z,100271.00
2023-11-13T01:36:40.161Z,100286.00
2023-11-13T01:39:08.995Z,100288.00
2023-11-13T01:41:36.015Z,100289.00
2023-11-13T01:44:02.828Z,100292.00
2023-11-13T01:46:31.625Z,100284.00
2023-11-13T01:48:59.906Z,100291.00
2023-11-13T01:51:27.677Z,100288.00
2023-11-13T01:53:54.734Z,100279.00
2023-11-13T01:56:23.226Z,100278.00
2023-11-13T01:58:50.299Z,100284.00
2023-11-13T02:01:17.204Z,100282.00
2023-11-13T02:03:44.811Z,100283.00
2023-11-13T02:06:11.730Z,100283.00
2023-11-13T02:08:38.719Z,100283.00
2023-11-13T02:11:07.706Z,100286.00
2023-11-13T02:13:35.438Z,100300.00
2023-11-13T02:16:14.865Z,100297.00
2023-11-13T02:18:44.831Z,100292.00
2023-11-13T02:21:14.390Z,100297.00
2023-11-13T02:24:08.498Z,100293.00
2023-11-13T02:26:35.522Z,100296.00
2023-11-13T02:29:08.696Z,100287.00
2023-11-13T02:31:56.202Z,100289.00
2023-11-13T02:34:32.082Z,100293.00
2023-11-13T02:37:05.443Z,100295.00
2023-11-13T02:39:33.088Z,100307.00
2023-11-13T02:42:27.280Z,100298.00
2023-11-13T02:45:00.323Z,100306.00
2023-11-13T02:47:27.270Z,100289.00
2023-11-13T02:50:19.004Z,100305.00
2023-11-13T02:53:00.639Z,100300.00
2023-11-13T02:55:39.473Z,100303.00
2023-11-13T02:58:24.666Z,100296.00
2023-11-13T03:01:07.985Z,100295.00
2023-11-13T03:03:39.526Z,100307.00
2023-11-13T03:06:13.236Z,100294.00
2023-11-13T03:09:17.674Z,100302.00
2023-11-13T03:11:50.412Z,100296.00
2023-11-13T03:14:32.519Z,100300.00
2023-11-13T03:17:30.295Z,100296.00
2023-11-13T03:20:04.668Z,100298.00
2023-11-13T03:22:31.571Z,100291.00
2023-11-13T03:25:26.660Z,100295.00
2023-11-13T03:27:56.632Z,100295.00
2023-11-13T03:30:42.802Z,100301.00
2023-11-13T03:33:28.177Z,100297.00
2023-11-13T03:35:55.144Z,100293.00
2023-11-13T03:38:40.068Z,100292.00
2023-11-13T03:41:09.824Z,100291.00
2023-11-13T03:43:48.923Z,100290.00
2023-11-13T03:47:12.227Z,100292.00
2023-11-13T03:50:10.185Z,100290.00
2023-11-13T03:52:40.423Z,100305.00
2023-11-13T03:55:25.463Z,100313.00
2023-11-13T03:57:55.497Z,100315.00
2023-11-13T04:00:56.411Z,100313.00
2023-11-13T04:04:03.915Z,100317.00
2023-11-13T04:06:55.933Z,100317.00
2023-11-13T04:09:41.476Z,100315.00
2023-11-13T04:12:26.470Z,100294.00
2023-11-13T04:14:53.284Z,100305.00
2023-11-13T04:17:29.251Z,100313.00
2023-11-13T04:19:56.813Z,100322.00
2023-11-13T04:22:29.608Z,100315.00
2023-11-13T04:25:15.623Z,100302.00
2023-11-13T04:28:20.602Z,100309.00
2023-11-13T04:30:57.021Z,100310.00
2023-11-13T04:33:33.051Z,100306.00
2023-11-13T04:36:18.625Z,100302.00
2023-11-13T04:38:48.645Z,100299.00
2023-11-13T04:41:17.730Z,100296.00
2023-11-13T04:44:27.289Z,100296.00
2023-11-13T04:46:54.655Z,100287.00
2023-11-13T04:49:21.575Z,100292.00
2023-11-13T04:51:48.470Z,100298.00
2023-11-13T04:54:15.303Z,100304.00
2023-11-13T04:56:43.565Z,100308.00
2023-11-13T04:59:10.725Z,100298.00
2023-11-13T05:01:41.170Z,100304.00
2023-11-13T05:04:08.244Z,100302.00
2023-11-13T05:06:36.305Z,100297.00
2023-11-13T05:09:06.377Z,100312.00
2023-11-13T05:11:33.183Z,100303.00
2023-11-13T05:13:59.981Z,100300.00
2023-11-13T05:16:28.427Z,100293.00
2023-11-13T05:18:56.326Z,100296.00
2023-11-13T05:21:23.756Z,100289.00
2023-11-13T05:23:51.188Z,100279.00
2023-11-13T05:26:18.503Z,100282.00
2023-11-13T05:28:45.750Z,100300.00
2023-11-13T05:31:12.712Z,100308.00
2023-11-13T05:33:39.607Z,100298.00
2023-11-13T05:36:06.837Z,100291.00
2023-11-13T05:38:33.850Z,100291.00
2023-11-13T05:41:01.347Z,100290.00
2023-11-13T05:43:28.313Z,100293.00
2023-11-13T05:45:55.239Z,100303.00
2023-11-13T05:48:22.197Z,100299.00
2023-11-13T05:50:49.768Z,100307.00
2023-11-13T05:53:16.750Z,100316.00
2023-11-13T05:55:43.576Z,100308.00
2023-11-13T05:58:10.436Z,100304.00
2023-11-13T06:00:37.306Z,100299.00
2023-11-13T06:03:04.149Z,100306.00
2023-11-13T06:05:31.006Z,100295.00
2023-11-13T06:07:57.795Z,100310.00
2023-11-13T06:10:24.748Z,100308.00
2023-11-13T06:12:51.798Z,100315.00
2023-11-13T06:15:18.955Z,100305.00
2023-11-13T06:17:46.502Z,100309.00
2023-11-13T06:20:14.925Z,100322.00
2023-11-13T06:22:42.731Z,100318.00
2023-11-13T06:25:11.237Z,100310.00
2023-11-13T06:27:39.227Z,100309.00
2023-11-13T06:30:06.754Z,100303.00
2023-11-13T06:32:33.646Z,100304.00
2023-11-13T06:35:00.645Z,100297.00
2023-11-13T06:37:27.542Z,100309.00
2023-11-13T06:39:54.483Z,100308.00
2023-11-13T06:42:21.313Z,100292.00
2023-11-13T06:44:48.104Z,100302.00
2023-11-13T06:47:15.055Z,100299.00
2023-11-13T06:49:41.956Z,100309.00
2023-11-13T06:52:09.747Z,100307.00
2023-11-13T06:54:36.802Z,100298.00
2023-11-13T06:57:05.528Z,100293.00
2023-11-13T06:59:32.438Z,100286.00
2023-11-13T07:01:59.377Z,100288.00
2023-11-13T07:04:26.382Z,100288.00
2023-11-13T07:06:53.357Z,100291.00
2023-11-13T07:09:20.425Z,100288.00
2023-11-13T07:11:49.011Z,100291.00
2023-11-13T07:14:16.969Z,100292.00
2023-11-13T07:16:43.941Z,100285.00
2023-11-13T07:19:14.165Z,100286.00
2023-11-13T07:21:42.150Z,100284.00
2023-11-13T07:24:13.587Z,100286.00
2023-11-13T07:26:40.741Z,100277.00
2023-11-13T07:29:07.849Z,100279.00
2023-11-13T07:31:34.797Z,100266.00
2023-11-13T07:34:02.258Z,100270.00
2023-11-13T07:36:29.380Z,100282.00
2023-11-13T07:38:59.378Z,100286.00
2023-11-13T07:41:26.267Z,100288.00
2023-11-13T07:43:55.709Z,100289.00
2023-11-13T07:46:22.920Z,100282.00
2023-11-13T07:48:49.733Z,100273.00
2023-11-13T07:51:18.566Z,100267.00
2023-11-13T07:53:47.967Z,100279.00
2023-11-13T07:56:14.997Z,100286.00
2023-11-13T07:58:41.947Z,100286.00
2023-11-13T08:01:09.588Z,100280.00
2023-11-13T08:03:36.581Z,100296.00
2023-11-13T08:06:05.090Z,100293.00
2023-11-13T08:08:31.983Z,100287.00
2023-11-13T08:10:58.802Z,100285.00
2023-11-13T08:13:25.994Z,100288.00
2023-11-13T08:15:54.212Z,100285.00
2023-11-13T08:18:21.078Z,100273.00
2023-11-13T08:20:48.206Z,100274.00
2023-11-13T08:23:15.691Z,100268.00
2023-11-13T08:25:47.757Z,100268.00
2023-11-13T08:28:15.716Z,100273.00
2023-11-13T08:30:44.901Z,100253.00
2023-11-13T08:33:12.506Z,100265.00
2023-11-13T08:35:39.948Z,100256.00
2023-11-13T08:38:12.505Z,100261.00
2023-11-13T08:40:40.003Z,100258.00
2023-11-13T08:43:12.615Z,100245.00
2023-11-13T08:45:54.624Z,100246.00
2023-11-13T08:48:28.413Z,100240.00
2023-11-13T08:51:00.572Z,100228.00
2023-11-13T08:53:30.542Z,100232.00
2023-11-13T08:55:58.264Z,100248.00
2023-11-13T08:58:25.934Z,100237.00
2023-11-13T09:00:54.731Z,100234.00
2023-11-13T09:03:22.323Z,100235.00
2023-11-13T09:05:50.707Z,100223.00
2023-11-13T09:08:17.736Z,100234.00
2023-11-13T09:10:46.309Z,100231.00
2023-11-13T09:13:14.221Z,100221.00
2023-11-13T09:15:42.103Z,100221.00
2023-11-13T09:18:10.414Z,100224.00
2023-11-13T09:20:37.293Z,100223.00
2023-11-13T09:23:07.152Z,100233.00
2023-11-13T09:25:34.516Z,100213.00
2023-11-13T09:28:02.110Z,100215.00
2023-11-13T09:30:29.211Z,100207.00
2023-11-13T09:32:57.238Z,100202.00
2023-11-13T09:35:26.205Z,100215.00
2023-11-13T09:37:57.188Z,100211.00
2023-11-13T09:40:26.576Z,100210.00
2023-11-13T09:42:55.302Z,100210.00
2023-11-13T09:45:23.752Z,100207.00
2023-11-13T09:47:57.288Z,100195.00
2023-11-13T09:50:24.271Z,100200.00
2023-11-13T09:52:53.158Z,100199.00
2023-11-13T09:55:22.073Z,100181.00
2023-11-13T09:57:50.325Z,100207.00
2023-11-13T10:00:18.418Z,100198.00
2023-11-13T10:02:49.252Z,100179.00
2023-11-13T10:05:16.941Z,100186.00
2023-11-13T10:07:48.561Z,100175.00
2023-11-13T10:10:23.463Z,100181.00
2023-11-13T10:12:52.142Z,100181.00
2023-11-13T10:15:29.433Z,100183.00
2023-11-13T10:17:58.360Z,100180.00
2023-11-13T10:20:26.573Z,100183.00
2023-11-13T10:23:20.791Z,100183.00
2023-11-13T10:25:54.142Z,100179.00
2023-11-13T10:28:25.402Z,100169.00
2023-11-13T10:30:53.029Z,100161.00
2023-11-13T10:33:21.458Z,100151.00
2023-11-13T10:35:51.297Z,100152.00
2023-11-13T10:38:21.404Z,100154.00
2023-11-13T10:41:00.531Z,100152.00
2023-11-13T10:43:29.996Z,100159.00
2023-11-13T10:45:57.615Z,100157.00
2023-11-13T10:48:34.364Z,100172.00
2023-11-13T10:51:05.398Z,100160.00
2023-11-13T10:53:47.309Z,100157.00
2023-11-13T10:56:15.154Z,100145.00
2023-11-13T10:58:43.266Z,100152.00
2023-11-13T11:01:13.485Z,100166.00
2023-11-13T11:03:48.627Z,100164.00
2023-11-13T11:06:23.101Z,100158.00
2023-11-13T11:08:52.055Z,100152.00
2023-11-13T11:11:23.043Z,100147.00
2023-11-13T11:13:54.592Z,100141.00
2023-11-13T11:16:33.047Z,100126.00
2023-11-13T11:19:19.301Z,100117.00
2023-11-13T11:22:11.839Z,100141.00
2023-11-13T11:24:58.970Z,100133.00
2023-11-13T11:27:43.084Z,100116.00
2023-11-13T11:30:19.628Z,100100.00
2023-11-13T11:32:56.895Z,100104.00
2023-11-13T11:35:25.400Z,100096.00
2023-11-13T11:38:30.798Z,100066.00
2023-11-13T11:41:00.600Z,100041.00
2023-11-13T11:43:32.538Z,100039.00
2023-11-13T11:46:04.126Z,100054.00
2023-11-13T11:48:34.696Z,100034.00
2023-11-13T11:51:22.334Z,100038.00
2023-11-13T11:56:25.472Z,100022.00
2023-11-13T11:58:53.444Z,100039.00
2023-11-13T12:01:23.435Z,100022.00
2023-11-13T12:03:53.809Z,100002.00
2023-11-13T12:07:40.598Z,99997.00
2023-11-13T12:10:46.129Z,99984.00
2023-11-13T12:13:11.464Z,99951.00
2023-11-13T12:16:20.341Z,99942.00
2023-11-13T12:18:50.561Z,99944.00
2023-11-13T12:21:17.530Z,99917.00
2023-11-13T12:23:48.147Z,99924.00
2023-11-13T12:26:16.058Z,99940.00
2023-11-13T12:28:44.761Z,99907.00
2023-11-13T12:31:19.180Z,99924.00
2023-11-13T12:33:46.859Z,99899.00
2023-11-13T12:36:14.646Z,99904.00
2023-11-13T12:38:48.124Z,99900.00
2023-11-13T12:41:15.788Z,99901.00
2023-11-13T12:43:43.823Z,99890.00
2023-11-13T12:46:12.959Z,99886.00
2023-11-13T12:48:42.428Z,99855.00
2023-11-13T12:51:10.952Z,99864.00
2023-11-13T12:53:39.700Z,99852.00
2023-11-13T12:56:07.134Z,99833.00
2023-11-13T12:58:37.463Z,99803.00
2023-11-13T13:01:07.997Z,99813.00
2023-11-13T13:03:36.147Z,99796.00
2023-11-13T13:06:04.217Z,99826.00
2023-11-13T13:08:33.655Z,99828.00
2023-11-13T13:11:00.606Z,99810.00
2023-11-13T13:13:27.649Z,99778.00
2023-11-13T13:15:55.121Z,99804.00
2023-11-13T13:18:24.116Z,99770.00
2023-11-13T13:20:52.721Z,99762.00
2023-11-13T13:23:19.534Z,99787.00
2023-11-13T13:25:46.457Z,99762.00
2023-11-13T13:28:14.288Z,99763.00
2023-11-13T13:30:41.714Z,99736.00
2023-11-13T13:33:12.667Z,99734.00
2023-11-13T13:35:40.266Z,99741.00
2023-11-13T13:38:07.320Z,99735.00
2023-11-13T13:40:35.291Z,99712.00
2023-11-13T13:43:02.408Z,99681.00
2023-11-13T13:45:34.095Z,99683.00
2023-11-13T13:48:02.994Z,99708.00
2023-11-13T13:50:30.981Z,99682.00
2023-11-13T13:53:02.006Z,99648.00
2023-11-13T13:55:30.638Z,99653.00
2023-11-13T13:58:04.798Z,99648.00
2023-11-13T14:00:37.650Z,99660.00
2023-11-13T14:05:39.126Z,99658.00
2023-11-13T14:08:07.059Z,99635.00
2023-11-13T14:10:36.104Z,99614.00
2023-11-13T14:13:07.128Z,99614.00
2023-11-13T14:15:34.360Z,99609.00
2023-11-13T14:18:01.617Z,99576.00
2023-11-13T14:20:28.562Z,99555.00
2023-11-13T14:23:00.843Z,99537.00
2023-11-13T14:25:28.573Z,99536.00
2023-11-13T14:27:55.674Z,99524.00
2023-11-13T14:30:26.748Z,99516.00
2023-11-13T14:32:55.266Z,99522.00
2023-11-13T14:35:24.767Z,99518.00
2023-11-13T14:37:51.829Z,99505.00
2023-11-13T14:40:20.318Z,99483.00
2023-11-13T14:42:47.968Z,99468.00
2023-11-13T14:45:19.459Z,99454.00
2023-11-13T14:47:49.392Z,99425.00
2023-11-13T14:50:21.651Z,99407.00
2023-11-13T14:52:52.195Z,99361.00
2023-11-13T14:55:20.315Z,99344.00
2023-11-13T14:57:48.332Z,99347.00
2023-11-13T15:00:16.334Z,99320.00
2023-11-13T15:02:43.389Z,99307.00
2023-11-13T15:05:10.538Z,99284.00
2023-11-13T15:07:37.651Z,99260.00
2023-11-13T15:10:05.997Z,99228.00
2023-11-13T15:12:33.212Z,99206.00
2023-11-13T15:15:05.963Z,99231.00
2023-11-13T15:17:33.075Z,99228.00
2023-11-13T15:20:00.119Z,99212.00
2023-11-13T15:22:27.036Z,99223.00
2023-11-13T15:24:54.154Z,99230.00
2023-11-13T15:27:20.970Z,99215.00
2023-11-13T15:29:47.806Z,99214.00
2023-11-13T15:32:15.435Z,99207.00
2023-11-13T15:34:42.626Z,99219.00
2023-11-13T15:37:10.071Z,99215.00
2023-11-13T15:39:37.876Z,99204.00
2023-11-13T15:42:05.704Z,99204.00
2023-11-13T15:44:34.743Z,99192.00
2023-11-13T15:47:02.227Z,99159.00
2023-11-13T15:49:29.095Z,99147.00
2023-11-13T15:51:55.989Z,99148.00
2023-11-13T15:54:22.980Z,99138.00
2023-11-13T15:56:49.877Z,99115.00
2023-11-13T15:59:16.829Z,99134.00
2023-11-13T16:01:49.250Z,99111.00
2023-11-13T16:04:22.232Z,99103.00
2023-11-13T16:06:49.486Z,99096.00
2023-11-13T16:09:16.290Z,99120.00
2023-11-13T16:11:43.301Z,99113.00
2023-11-13T16:14:10.144Z,99113.00
2023-11-13T16:16:37.113Z,99104.00
2023-11-13T16:19:04.040Z,99106.00
2023-11-13T16:21:31.299Z,99101.00
2023-11-13T16:23:58.425Z,99088.00
2023-11-13T16:26:25.321Z,99070.00
2023-11-13T16:28:53.510Z,99071.00
2023-11-13T16:31:23.494Z,99059.00
2023-11-13T16:33:50.457Z,99060.00
2023-11-13T16:36:20.495Z,99053.00
2023-11-13T16:38:48.502Z,99025.00
2023-11-13T16:41:16.007Z,99026.00
2023-11-13T16:43:43.601Z,99007.00
2023-11-13T16:46:12.247Z,98987.00
2023-11-13T16:48:39.214Z,98979.00
2023-11-13T16:51:07.063Z,98974.00
2023-11-13T16:53:36.354Z,98962.00
2023-11-13T16:56:03.311Z,98952.00
2023-11-13T16:58:30.452Z,98938.00
2023-11-13T17:00:58.542Z,98942.00
2023-11-13T17:03:25.859Z,98925.00
2023-11-13T17:05:53.207Z,98931.00
2023-11-13T17:08:32.346Z,98923.00
2023-11-13T17:11:09.438Z,98911.00
2023-11-13T17:13:39.826Z,98920.00
2023-11-13T17:16:14.871Z,98909.00
2023-11-13T17:18:42.065Z,98933.00
2023-11-13T17:21:09.119Z,98919.00
2023-11-13T17:23:37.008Z,98920.00
2023-11-13T17:26:08.224Z,98915.00
2023-11-13T17:28:35.624Z,98925.00
2023-11-13T17:31:02.728Z,98917.00
2023-11-13T17:33:29.578Z,98910.00
2023-11-13T17:36:26.281Z,98897.00
2023-11-13T17:39:12.105Z,98893.00
2023-11-13T17:42:15.624Z,98886.00
2023-11-13T17:44:43.793Z,98873.00
2023-11-13T17:47:27.360Z,98872.00
2023-11-13T17:49:54.286Z,98871.00
2023-11-13T17:52:21.235Z,98865.00
2023-11-13T17:54:48.398Z,98864.00
2023-11-13T17:57:15.392Z,98865.00
2023-11-13T17:59:42.861Z,98858.00
2023-11-13T18:02:12.202Z,98852.00
2023-11-13T18:04:49.806Z,98866.00
2023-11-13T18:07:22.627Z,98873.00
2023-11-13T18:09:49.451Z,98857.00
2023-11-13T18:12:16.237Z,98852.00
2023-11-13T18:14:43.055Z,98843.00
2023-11-13T18:17:09.975Z,98847.00
2023-11-13T18:19:36.872Z,98852.00
2023-11-13T18:22:05.987Z,98851.00
2023-11-13T18:24:32.922Z,98842.00
2023-11-13T18:26:59.958Z,98850.00
2023-11-13T18:29:33.498Z,98833.00
2023-11-13T18:32:00.767Z,98813.00
2023-11-13T18:34:28.099Z,98815.00
2023-11-13T18:37:00.468Z,98810.00
2023-11-13T18:39:27.874Z,98805.00
2023-11-13T18:42:03.506Z,98811.00
2023-11-13T18:44:30.361Z,98803.00
2023-11-13T18:46:57.499Z,98787.00
2023-11-13T18:49:30.567Z,98799.00
2023-11-13T18:51:57.444Z,98778.00
2023-11-13T18:54:24.287Z,98769.00
2023-11-13T18:56:51.693Z,98786.00
2023-11-13T18:59:18.989Z,98783.00
2023-11-13T19:01:46.452Z,98771.00
2023-11-13T19:04:14.849Z,98777.00
2023-11-13T19:06:43.432Z,98777.00
2023-11-13T19:09:11.152Z,98769.00
2023-11-13T19:11:38.332Z,98766.00
2023-11-13T19:14:05.723Z,98777.00
2023-11-13T19:16:32.722Z,98776.00
2023-11-13T19:18:59.670Z,98764.00
2023-11-13T19:21:29.245Z,98752.00
2023-11-13T19:23:58.862Z,98768.00
2023-11-13T19:26:26.468Z,98759.00
2023-11-13T19:28:53.345Z,98760.00
2023-11-13T19:31:20.781Z,98767.00
2023-11-13T19:33:47.777Z,98762.00
2023-11-13T19:36:16.414Z,98760.00
2023-11-13T19:38:44.532Z,98765.00
2023-11-13T19:41:11.441Z,98749.00
2023-11-13T19:43:39.052Z,98749.00
2023-11-13T19:46:05.896Z,98761.00
2023-11-13T19:48:33.050Z,98758.00
2023-11-13T19:51:00.052Z,98756.00
2023-11-13T19:53:28.295Z,98740.00
2023-11-13T19:55:58.246Z,98755.00
2023-11-13T19:58:25.248Z,98753.00
2023-11-13T20:00:52.129Z,98750.00
2023-11-13T20:03:19.027Z,98750.00
2023-11-13T20:05:45.967Z,98745.00
2023-11-13T20:08:14.058Z,98739.00
2023-11-13T20:10:42.438Z,98757.00
2023-11-13T20:13:10.788Z,98740.00
2023-11-13T20:15:37.696Z,98735.00
2023-11-13T20:18:04.921Z,98742.00
2023-11-13T20:20:31.820Z,98734.00
2023-11-13T20:22:58.964Z,98743.00
2023-11-13T20:25:25.889Z,98741.00
2023-11-13T20:27:52.769Z,98731.00
2023-11-13T20:30:19.910Z,98725.00
2023-11-13T20:32:46.920Z,98723.00
2023-11-13T20:35:13.869Z,98730.00
2023-11-13T20:37:41.538Z,98717.00
2023-11-13T20:40:10.020Z,98724.00
2023-11-13T20:42:36.861Z,98740.00
2023-11-13T20:45:05.861Z,98741.00
2023-11-13T20:47:37.253Z,98739.00
2023-11-13T20:50:05.419Z,98735.00
2023-11-13T20:52:32.454Z,98734.00
2023-11-13T20:54:59.649Z,98738.00
2023-11-13T20:57:30.103Z,98741.00
2023-11-13T20:59:57.078Z,98742.00
2023-11-13T21:02:24.182Z,98755.00
2023-11-13T21:04:51.077Z,98736.00
2023-11-13T21:07:17.994Z,98752.00
2023-11-13T21:09:45.059Z,98756.00
2023-11-13T21:12:11.873Z,98764.00
2023-11-13T21:14:39.518Z,98776.00
2023-11-13T21:17:07.706Z,98771.00
2023-11-13T21:19:34.822Z,98766.00
2023-11-13T21:22:01.706Z,98775.00
2023-11-13T21:24:28.606Z,98771.00
2023-11-13T21:26:55.433Z,98779.00
2023-11-13T21:29:22.331Z,98773.00
2023-11-13T21:31:50.010Z,98764.00
2023-11-13T21:34:16.889Z,98763.00
2023-11-13T21:36:44.542Z,98776.00
2023-11-13T21:39:12.424Z,98769.00
2023-11-13T21:41:39.462Z,98770.00
2023-11-13T21:44:06.602Z,98761.00
2023-11-13T21:46:34.042Z,98766.00
2023-11-13T21:49:01.056Z,98769.00
2023-11-13T21:51:27.893Z,98759.00
2023-11-13T21:53:54.941Z,98774.00
2023-11-13T21:56:21.913Z,98776.00
2023-11-13T21:58:48.847Z,98777.00
2023-11-13T22:01:15.775Z,98775.00
2023-11-13T22:03:43.090Z,98780.00
2023-11-13T22:06:11.466Z,98791.00
2023-11-13T22:08:38.580Z,98776.00
2023-11-13T22:11:05.841Z,98780.00
2023-11-13T22:13:33.330Z,98787.00
2023-11-13T22:16:00.650Z,98794.00
2023-11-13T22:18:27.769Z,98798.00
2023-11-13T22:20:54.888Z,98800.00
2023-11-13T22:23:21.680Z,98816.00
2023-11-13T22:25:48.989Z,98814.00
2023-11-13T22:28:53.027Z,98809.00
2023-11-13T22:31:19.880Z,98813.00
2023-11-13T22:33:46.682Z,98798.00
2023-11-13T22:36:13.490Z,98787.00
2023-11-13T22:50:45.487Z,98798.00
2023-11-13T22:53:15.184Z,98834.00
2023-11-13T22:55:45.178Z,98813.00
2023-11-13T22:58:18.968Z,98814.00
2023-11-13T23:01:05.311Z,98813.00
2023-11-13T23:03:34.874Z,98811.00
2023-11-13T23:06:01.748Z,98813.00
2023-11-13T23:15:56.641Z,98791.00
2023-11-13T23:18:23.948Z,98775.00
2023-11-13T23:20:50.801Z,98776.00
2023-11-13T23:23:17.657Z,98761.00
2023-11-13T23:25:47.451Z,98758.00
2023-11-13T23:28:14.488Z,98757.00
2023-11-13T23:30:42.251Z,98753.00
2023-11-13T23:37:21.167Z,98746.00
2023-11-13T23:39:56.348Z,98748.00
2023-11-13T23:42:23.615Z,98742.00
2023-11-13T23:45:53.252Z,98749.00
2023-11-13T23:48:21.131Z,98733.00
2023-11-13T23:50:55.701Z,98739.00
2023-11-13T23:53:22.525Z,98734.00
2023-11-13T23:55:49.921Z,98737.00
2023-11-13T23:58:28.983Z,98735.00
